createdAt,value
2024-02-24T00:00:24.507Z,99630.66
2024-02-24T00:02:50.811Z,99622.41
2024-02-24T00:05:17.501Z,99622.53
2024-02-24T00:07:43.897Z,99628.16
2024-02-24T00:10:10.514Z,99628.56
2024-02-24T00:12:37.032Z,99634.88
2024-02-24T00:15:03.825Z,99632.78
2024-02-24T00:17:30.444Z,99631.72
2024-02-24T00:19:57.024Z,99634.66
2024-02-24T00:22:23.542Z,99639.19
2024-02-24T00:24:49.816Z,99644.81
2024-02-24T00:27:16.226Z,99640.03
2024-02-24T00:29:43.026Z,99641.06
2024-02-24T00:32:09.374Z,99632.19
2024-02-24T00:34:35.912Z,99627.50
2024-02-24T00:37:02.180Z,99634.81
2024-02-24T00:39:28.691Z,99627.50
2024-02-24T00:41:55.024Z,99622.22
2024-02-24T00:44:21.561Z,99621.72
2024-02-24T00:46:48.084Z,99614.50
2024-02-24T00:49:14.400Z,99623.75
2024-02-24T00:51:42.727Z,99620.00
2024-02-24T00:54:09.457Z,99624.00
2024-02-24T00:56:37.087Z,99628.06
2024-02-24T00:59:03.775Z,99624.41
2024-02-24T01:01:30.089Z,99625.81
2024-02-24T01:03:56.590Z,99634.56
2024-02-24T01:06:22.979Z,99621.25
2024-02-24T01:08:49.627Z,99630.59
2024-02-24T01:11:16.382Z,99626.50
2024-02-24T01:13:43.925Z,99629.91
2024-02-24T01:16:10.412Z,99631.38
2024-02-24T01:18:37.135Z,99625.09
2024-02-24T01:21:04.260Z,99629.34
2024-02-24T01:23:30.803Z,99635.06
2024-02-24T01:25:57.142Z,99626.81
2024-02-24T01:28:23.646Z,99627.22
2024-02-24T01:30:50.247Z,99628.06
2024-02-24T01:33:17.163Z,99622.34
2024-02-24T01:35:43.811Z,99625.00
2024-02-24T01:38:11.289Z,99621.31
2024-02-24T01:40:37.610Z,99619.38
2024-02-24T01:43:04.329Z,99618.66
2024-02-24T01:45:30.710Z,99620.28
2024-02-24T01:47:58.175Z,99630.13
2024-02-24T01:50:25.141Z,99626.69
2024-02-24T01:52:51.599Z,99626.28
2024-02-24T01:55:19.295Z,99632.72
2024-02-24T01:57:45.639Z,99643.47
2024-02-24T02:00:12.843Z,99638.66
2024-02-24T02:02:40.325Z,99638.56
2024-02-24T02:05:07.728Z,99641.16
2024-02-24T02:07:34.725Z,99634.69
2024-02-24T02:10:01.088Z,99640.47
2024-02-24T02:12:28.411Z,99644.13
2024-02-24T02:14:55.116Z,99643.56
2024-02-24T02:17:22.295Z,99640.16
2024-02-24T02:19:49.474Z,99648.41
2024-02-24T02:22:17.193Z,99654.59
2024-02-24T02:24:47.090Z,99655.34
2024-02-24T02:27:13.797Z,99657.69
2024-02-24T02:29:40.614Z,99649.91
2024-02-24T02:32:09.078Z,99653.41
2024-02-24T02:34:35.892Z,99657.00
2024-02-24T02:37:02.316Z,99648.16
2024-02-24T02:39:29.099Z,99650.38
2024-02-24T02:41:55.421Z,99651.22
2024-02-24T02:44:21.908Z,99652.50
2024-02-24T02:46:48.706Z,99648.72
2024-02-24T02:49:16.115Z,99653.50
2024-02-24T02:51:42.770Z,99651.28
2024-02-24T02:54:09.172Z,99663.00
2024-02-24T02:56:35.888Z,99655.84
2024-02-24T02:59:02.244Z,99652.09
2024-02-24T03:01:29.436Z,99652.50
2024-02-24T03:03:55.805Z,99658.91
2024-02-24T03:06:22.257Z,99662.34
2024-02-24T03:08:49.006Z,99674.94
2024-02-24T03:11:19.118Z,99662.75
2024-02-24T03:13:45.855Z,99659.84
2024-02-24T03:16:12.160Z,99665.91
2024-02-24T03:18:38.717Z,99659.63
2024-02-24T03:21:05.201Z,99667.88
2024-02-24T03:23:31.925Z,99663.03
2024-02-24T03:25:58.215Z,99669.91
2024-02-24T03:28:24.730Z,99663.81
2024-02-24T03:30:51.006Z,99672.63
2024-02-24T03:33:18.628Z,99660.44
2024-02-24T03:35:45.312Z,99670.69
2024-02-24T03:38:11.692Z,99665.38
2024-02-24T03:40:38.497Z,99662.75
2024-02-24T03:43:04.831Z,99662.44
2024-02-24T03:45:33.627Z,99661.50
2024-02-24T03:48:00.142Z,99658.09
2024-02-24T03:50:26.816Z,99658.31
2024-02-24T03:52:53.338Z,99657.53
2024-02-24T03:55:19.844Z,99648.06
2024-02-24T03:57:46.139Z,99661.00
2024-02-24T04:00:12.796Z,99660.44
2024-02-24T04:02:39.968Z,99668.75
2024-02-24T04:05:06.450Z,99673.00
2024-02-24T04:07:33.014Z,99673.59
2024-02-24T04:09:59.304Z,99673.00
2024-02-24T04:12:26.057Z,99666.91
2024-02-24T04:14:52.580Z,99672.41
2024-02-24T04:17:19.139Z,99676.09
2024-02-24T04:19:45.642Z,99682.00
2024-02-24T04:22:11.954Z,99683.44
2024-02-24T04:24:38.467Z,99683.81
2024-02-24T04:27:05.191Z,99679.75
2024-02-24T04:29:31.497Z,99684.56
2024-02-24T04:31:58.534Z,99678.97
2024-02-24T04:34:24.872Z,99681.09
2024-02-24T04:36:51.156Z,99689.81
2024-02-24T04:39:17.717Z,99688.25
2024-02-24T04:41:44.274Z,99686.13
2024-02-24T04:44:10.918Z,99692.28
2024-02-24T04:46:39.496Z,99687.94
2024-02-24T04:49:06.080Z,99690.72
2024-02-24T04:51:32.432Z,99694.91
2024-02-24T04:53:58.718Z,99698.97
2024-02-24T04:56:26.990Z,99698.31
2024-02-24T04:58:53.342Z,99696.34
2024-02-24T05:01:19.764Z,99702.31
2024-02-24T05:03:46.099Z,99704.09
2024-02-24T05:06:12.821Z,99704.88
2024-02-24T05:08:39.353Z,99703.16
2024-02-24T05:11:06.111Z,99696.16
2024-02-24T05:13:32.744Z,99700.88
2024-02-24T05:15:59.344Z,99703.53
2024-02-24T05:18:26.089Z,99702.09
2024-02-24T05:20:52.507Z,99699.72
2024-02-24T05:23:19.156Z,99706.19
2024-02-24T05:25:48.523Z,99710.75
2024-02-24T05:28:15.934Z,99709.66
2024-02-24T05:30:42.217Z,99707.19
2024-02-24T05:33:09.263Z,99713.88
2024-02-24T05:35:35.702Z,99713.22
2024-02-24T05:38:02.239Z,99716.81
2024-02-24T05:40:28.506Z,99714.06
2024-02-24T05:42:55.210Z,99727.16
2024-02-24T05:45:21.508Z,99723.69
2024-02-24T05:47:47.865Z,99721.06
2024-02-24T05:50:14.566Z,99732.53
2024-02-24T05:52:40.915Z,99733.09
2024-02-24T05:55:10.156Z,99734.38
2024-02-24T05:57:36.771Z,99732.19
2024-02-24T06:00:05.602Z,99728.47
2024-02-24T06:02:32.665Z,99740.03
2024-02-24T06:04:59.308Z,99740.28
2024-02-24T06:07:25.596Z,99735.00
2024-02-24T06:09:52.089Z,99744.72
2024-02-24T06:12:18.499Z,99759.03
2024-02-24T06:14:44.975Z,99763.47
2024-02-24T06:17:11.279Z,99766.75
2024-02-24T06:19:37.772Z,99755.31
2024-02-24T06:22:04.238Z,99758.38
2024-02-24T06:24:30.583Z,99757.47
2024-02-24T06:26:57.127Z,99754.00
2024-02-24T06:29:23.692Z,99746.47
2024-02-24T06:31:50.202Z,99750.91
2024-02-24T06:34:16.600Z,99752.78
2024-02-24T06:36:43.236Z,99748.50
2024-02-24T06:39:09.928Z,99754.50
2024-02-24T06:41:36.458Z,99754.19
2024-02-24T06:44:02.777Z,99758.41
2024-02-24T06:46:29.338Z,99762.78
2024-02-24T06:48:55.810Z,99764.63
2024-02-24T06:51:23.108Z,99756.56
2024-02-24T06:53:49.780Z,99764.16
2024-02-24T06:56:20.248Z,99763.72
2024-02-24T06:58:46.830Z,99759.28
2024-02-24T07:01:21.029Z,99765.84
2024-02-24T07:03:47.546Z,99769.59
2024-02-24T07:06:14.093Z,99770.66
2024-02-24T07:08:40.621Z,99776.44
2024-02-24T07:11:06.944Z,99781.19
2024-02-24T07:13:33.493Z,99778.47
2024-02-24T07:15:59.994Z,99782.81
2024-02-24T07:18:26.524Z,99787.34
2024-02-24T07:20:52.994Z,99784.41
2024-02-24T07:23:19.587Z,99795.22
2024-02-24T07:25:45.932Z,99790.28
2024-02-24T07:28:12.538Z,99799.88
2024-02-24T07:30:38.847Z,99797.88
2024-02-24T07:33:05.672Z,99795.56
2024-02-24T07:35:32.131Z,99806.13
2024-02-24T07:37:58.691Z,99807.69
2024-02-24T07:40:25.203Z,99799.56
2024-02-24T07:42:51.616Z,99805.94
2024-02-24T07:45:18.243Z,99804.91
2024-02-24T07:47:44.674Z,99806.44
2024-02-24T07:50:11.461Z,99807.19
2024-02-24T07:52:38.371Z,99802.28
2024-02-24T07:55:05.035Z,99803.59
2024-02-24T07:57:31.363Z,99804.22
2024-02-24T07:59:57.698Z,99805.56
2024-02-24T08:02:24.013Z,99804.06
2024-02-24T08:04:50.378Z,99802.22
2024-02-24T08:07:16.714Z,99803.91
2024-02-24T08:09:43.035Z,99804.94
2024-02-24T08:12:09.744Z,99803.38
2024-02-24T08:14:37.302Z,99804.84
2024-02-24T08:17:03.883Z,99806.94
2024-02-24T08:19:34.753Z,99806.34
2024-02-24T08:22:01.716Z,99805.78
2024-02-24T08:24:28.017Z,99804.59
2024-02-24T08:26:54.460Z,99806.63
2024-02-24T08:29:20.792Z,99807.44
2024-02-24T08:31:47.155Z,99810.13
2024-02-24T08:34:14.267Z,99815.06
2024-02-24T08:36:40.800Z,99825.19
2024-02-24T08:39:07.422Z,99827.22
2024-02-24T08:41:34.895Z,99824.00
2024-02-24T08:44:02.855Z,99825.69
2024-02-24T08:46:29.752Z,99833.03
2024-02-24T08:48:56.485Z,99829.63
2024-02-24T08:51:22.953Z,99837.09
2024-02-24T08:53:49.632Z,99839.78
2024-02-24T08:56:20.057Z,99850.19
2024-02-24T08:58:46.694Z,99839.16
2024-02-24T09:01:15.353Z,99850.88
2024-02-24T09:03:42.088Z,99844.47
2024-02-24T09:06:09.134Z,99842.91
2024-02-24T09:08:35.623Z,99844.47
2024-02-24T09:11:02.246Z,99845.44
2024-02-24T09:13:28.670Z,99838.28
2024-02-24T09:15:55.290Z,99835.75
2024-02-24T09:18:21.985Z,99846.94
2024-02-24T09:20:48.363Z,99841.44
2024-02-24T09:23:15.095Z,99838.41
2024-02-24T09:25:41.401Z,99835.81
2024-02-24T09:28:10.402Z,99847.72
2024-02-24T09:30:38.081Z,99850.72
2024-02-24T09:33:04.914Z,99841.34
2024-02-24T09:35:31.579Z,99833.13
2024-02-24T09:37:58.108Z,99839.88
2024-02-24T09:40:24.468Z,99837.31
2024-02-24T09:42:51.685Z,99842.91
2024-02-24T09:45:19.657Z,99839.88
2024-02-24T09:47:46.421Z,99850.38
2024-02-24T09:50:12.881Z,99836.25
2024-02-24T09:52:40.531Z,99843.50
2024-02-24T09:55:07.704Z,99831.94
2024-02-24T09:57:36.680Z,99847.94
2024-02-24T10:00:05.419Z,99840.19
2024-02-24T10:02:31.943Z,99843.59
2024-02-24T10:04:58.396Z,99837.47
2024-02-24T10:07:25.435Z,99838.41
2024-02-24T10:09:51.732Z,99855.72
2024-02-24T10:12:18.270Z,99846.19
2024-02-24T10:14:44.841Z,99855.63
2024-02-24T10:17:11.530Z,99865.06
2024-02-24T10:19:38.210Z,99847.88
2024-02-24T10:22:07.337Z,99870.31
2024-02-24T10:24:35.343Z,99853.91
2024-02-24T10:27:02.747Z,99841.84
2024-02-24T10:29:32.787Z,99860.03
2024-02-24T10:31:59.803Z,99866.91
2024-02-24T10:34:26.888Z,99848.19
2024-02-24T10:36:53.276Z,99854.03
2024-02-24T10:39:20.229Z,99863.59
2024-02-24T10:41:47.228Z,99862.50
2024-02-24T10:44:22.313Z,99854.19
2024-02-24T10:46:50.592Z,99865.97
2024-02-24T10:49:17.636Z,99875.53
2024-02-24T10:51:47.348Z,99873.81
2024-02-24T10:54:16.386Z,99858.28
2024-02-24T10:56:43.555Z,99844.50
2024-02-24T10:59:10.288Z,99865.19
2024-02-24T11:01:44.197Z,99848.81
2024-02-24T11:04:12.048Z,99867.53
2024-02-24T11:06:46.299Z,99851.50
2024-02-24T11:09:17.059Z,99883.50
2024-02-24T11:11:44.364Z,99860.59
2024-02-24T11:14:10.950Z,99868.81
2024-02-24T11:16:39.424Z,99866.69
2024-02-24T11:19:11.829Z,99874.53
2024-02-24T11:21:57.411Z,99871.53
2024-02-24T11:24:23.806Z,99890.50
2024-02-24T11:26:50.527Z,99866.88
2024-02-24T11:29:17.641Z,99872.56
2024-02-24T11:31:45.222Z,99869.72
2024-02-24T11:34:13.099Z,99885.03
2024-02-24T11:36:40.346Z,99868.47
2024-02-24T11:39:12.529Z,99877.25
2024-02-24T11:41:41.476Z,99853.13
2024-02-24T11:44:08.512Z,99871.19
2024-02-24T11:46:36.224Z,99861.28
2024-02-24T11:49:03.670Z,99875.50
2024-02-24T11:51:30.208Z,99872.63
2024-02-24T11:53:56.813Z,99873.66
2024-02-24T11:56:24.016Z,99876.19
2024-02-24T11:58:50.839Z,99884.13
2024-02-24T12:01:17.247Z,99894.28
2024-02-24T12:03:50.733Z,99903.34
2024-02-24T12:06:18.034Z,99899.59
2024-02-24T12:08:45.166Z,99895.19
2024-02-24T12:11:12.006Z,99903.31
2024-02-24T12:13:39.474Z,99885.91
2024-02-24T12:16:06.306Z,99888.06
2024-02-24T12:18:34.082Z,99889.53
2024-02-24T12:21:00.790Z,99884.59
2024-02-24T12:23:30.030Z,99865.16
2024-02-24T12:25:56.720Z,99871.50
2024-02-24T12:28:23.145Z,99880.91
2024-02-24T12:30:49.450Z,99865.47
2024-02-24T12:33:18.290Z,99870.31
2024-02-24T12:35:47.787Z,99870.16
2024-02-24T12:38:20.469Z,99889.16
2024-02-24T12:40:47.304Z,99869.41
2024-02-24T12:43:13.815Z,99871.16
2024-02-24T12:45:40.456Z,99863.44
2024-02-24T12:48:08.013Z,99877.19
2024-02-24T12:50:34.945Z,99872.06
2024-02-24T12:53:04.556Z,99872.94
2024-02-24T12:55:31.955Z,99885.81
2024-02-24T12:57:58.498Z,99872.97
2024-02-24T13:00:25.099Z,99879.84
2024-02-24T13:02:52.767Z,99872.91
2024-02-24T13:05:19.396Z,99885.28
2024-02-24T13:07:46.072Z,99888.94
2024-02-24T13:10:12.525Z,99889.78
2024-02-24T13:12:39.299Z,99903.19
2024-02-24T13:15:06.166Z,99900.03
2024-02-24T13:17:32.537Z,99910.41
2024-02-24T13:19:59.119Z,99899.31
2024-02-24T13:22:25.462Z,99904.53
2024-02-24T13:24:52.075Z,99897.72
2024-02-24T13:27:18.359Z,99897.69
2024-02-24T13:29:45.148Z,99901.91
2024-02-24T13:32:11.791Z,99899.81
2024-02-24T13:34:38.209Z,99904.63
2024-02-24T13:37:06.983Z,99901.25
2024-02-24T13:39:34.709Z,99908.91
2024-02-24T13:42:01.364Z,99913.91
2024-02-24T13:44:27.736Z,99905.47
2024-02-24T13:46:54.340Z,99902.78
2024-02-24T13:49:21.341Z,99908.31
2024-02-24T13:51:48.061Z,99925.84
2024-02-24T13:54:14.672Z,99918.91
2024-02-24T13:56:41.180Z,99917.91
2024-02-24T13:59:07.782Z,99926.84
2024-02-24T14:01:34.241Z,99929.78
2024-02-24T14:04:02.709Z,99935.09
2024-02-24T14:06:29.673Z,99922.41
2024-02-24T14:08:56.411Z,99931.44
2024-02-24T14:11:22.844Z,99933.88
2024-02-24T14:13:50.042Z,99934.47
2024-02-24T14:16:16.577Z,99926.59
2024-02-24T14:18:42.977Z,99927.75
2024-02-24T14:21:09.723Z,99938.97
2024-02-24T14:23:38.549Z,99923.38
2024-02-24T14:26:05.670Z,99940.47
2024-02-24T14:28:32.190Z,99943.09
2024-02-24T14:30:58.791Z,99945.13
2024-02-24T14:33:25.531Z,99948.88
2024-02-24T14:35:52.057Z,99940.72
2024-02-24T14:38:18.663Z,99943.63
2024-02-24T14:40:49.962Z,99945.41
2024-02-24T14:43:17.022Z,99948.81
2024-02-24T14:45:43.565Z,99955.75
2024-02-24T14:48:10.052Z,99952.06
2024-02-24T14:50:36.843Z,99955.19
2024-02-24T14:53:03.356Z,99953.47
2024-02-24T14:55:29.892Z,99942.34
2024-02-24T14:57:56.424Z,99949.06
2024-02-24T15:00:24.006Z,99965.03
2024-02-24T15:03:04.281Z,99953.53
2024-02-24T15:05:36.657Z,99967.56
2024-02-24T15:08:03.750Z,99970.81
2024-02-24T15:10:30.100Z,99971.44
2024-02-24T15:12:56.691Z,99964.31
2024-02-24T15:15:23.063Z,99965.94
2024-02-24T15:17:52.884Z,99958.41
2024-02-24T15:20:20.081Z,99963.63
2024-02-24T15:22:48.070Z,99960.50
2024-02-24T15:25:14.763Z,99972.25
2024-02-24T15:27:41.276Z,99971.25
2024-02-24T15:30:08.781Z,99969.53
2024-02-24T15:32:35.388Z,99977.00
2024-02-24T15:35:02.060Z,99970.81
2024-02-24T15:37:28.484Z,99966.09
2024-02-24T15:39:55.009Z,99965.84
2024-02-24T15:42:21.335Z,99968.88
2024-02-24T15:44:47.745Z,99964.22
2024-02-24T15:47:14.380Z,99976.53
2024-02-24T15:49:41.195Z,99977.00
2024-02-24T15:52:07.963Z,99971.53
2024-02-24T15:54:35.424Z,99982.41
2024-02-24T15:57:02.156Z,99977.09
2024-02-24T15:59:28.565Z,99981.19
2024-02-24T16:01:54.917Z,99978.31
2024-02-24T16:04:21.236Z,99980.59
2024-02-24T16:06:47.801Z,99984.69
2024-02-24T16:09:14.368Z,99990.56
2024-02-24T16:11:40.806Z,99987.25
2024-02-24T16:14:07.651Z,99993.25
2024-02-24T16:16:33.972Z,99996.72
2024-02-24T16:19:00.470Z,100006.09
2024-02-24T16:21:27.903Z,100009.56
2024-02-24T16:23:54.302Z,100007.84
2024-02-24T16:26:20.650Z,100008.66
2024-02-24T16:28:46.961Z,100006.09
2024-02-24T16:31:13.604Z,100017.88
2024-02-24T16:33:40.040Z,100018.66
2024-02-24T16:36:06.957Z,100022.84
2024-02-24T16:38:33.505Z,100018.47
2024-02-24T16:40:59.832Z,100021.88
2024-02-24T16:43:26.153Z,100029.53
2024-02-24T16:45:52.463Z,100034.66
2024-02-24T16:48:19.188Z,100026.09
2024-02-24T16:50:46.158Z,100026.09
2024-02-24T16:53:12.565Z,100037.94
2024-02-24T16:55:38.864Z,100031.94
2024-02-24T16:58:05.266Z,100038.75
2024-02-24T17:00:31.740Z,100036.19
2024-02-24T17:02:58.112Z,100042.94
2024-02-24T17:05:24.831Z,100062.63
2024-02-24T17:07:51.148Z,100063.63
2024-02-24T17:10:17.744Z,100079.03
2024-02-24T17:12:44.295Z,100103.44
2024-02-24T17:15:11.791Z,100111.31
2024-02-24T17:17:38.612Z,100112.75
2024-02-24T17:20:06.596Z,100138.31
2024-02-24T17:22:33.877Z,100140.59
2024-02-24T17:25:00.647Z,100152.75
2024-02-24T17:27:27.239Z,100141.63
2024-02-24T17:29:55.206Z,100145.47
2024-02-24T17:32:21.763Z,100142.56
2024-02-24T17:34:48.150Z,100154.19
2024-02-24T17:37:14.433Z,100160.03
2024-02-24T17:39:40.980Z,100160.84
2024-02-24T17:42:07.599Z,100160.66
2024-02-24T17:44:34.226Z,100167.47
2024-02-24T17:47:01.637Z,100155.38
2024-02-24T17:49:29.740Z,100160.28
2024-02-24T17:51:56.190Z,100171.97
2024-02-24T17:54:24.884Z,100169.84
2024-02-24T17:56:51.290Z,100170.91
2024-02-24T17:59:17.647Z,100176.03
2024-02-24T18:01:46.565Z,100164.22
2024-02-24T18:04:14.274Z,100180.44
2024-02-24T18:06:40.661Z,100179.97
2024-02-24T18:09:07.047Z,100180.00
2024-02-24T18:11:33.555Z,100184.88
2024-02-24T18:14:00.599Z,100195.69
2024-02-24T18:16:26.916Z,100192.19
2024-02-24T18:18:53.691Z,100193.03
2024-02-24T18:21:20.314Z,100200.34
2024-02-24T18:23:47.007Z,100203.50
2024-02-24T18:26:13.354Z,100209.03
2024-02-24T18:28:40.777Z,100225.75
2024-02-24T18:31:07.288Z,100218.75
2024-02-24T18:33:33.912Z,100228.84
2024-02-24T18:36:00.661Z,100227.81
2024-02-24T18:38:27.022Z,100231.00
2024-02-24T18:40:53.466Z,100228.47
2024-02-24T18:43:20.917Z,100230.91
2024-02-24T18:45:47.434Z,100233.25
2024-02-24T18:48:14.099Z,100233.16
2024-02-24T18:50:40.834Z,100237.97
2024-02-24T18:53:07.328Z,100235.78
2024-02-24T18:55:35.468Z,100239.06
2024-02-24T18:58:02.553Z,100238.31
2024-02-24T19:00:29.118Z,100243.03
2024-02-24T19:02:55.541Z,100239.66
2024-02-24T19:05:22.077Z,100250.34
2024-02-24T19:07:51.463Z,100244.13
2024-02-24T19:10:19.036Z,100250.06
2024-02-24T19:12:45.500Z,100255.75
2024-02-24T19:15:12.192Z,100252.25
2024-02-24T19:17:38.763Z,100254.59
2024-02-24T19:20:05.909Z,100250.25
2024-02-24T19:22:32.515Z,100253.53
2024-02-24T19:24:59.313Z,100246.44
2024-02-24T19:27:25.622Z,100247.81
2024-02-24T19:29:52.178Z,100240.78
2024-02-24T19:32:18.596Z,100240.41
2024-02-24T19:34:44.961Z,100241.47
2024-02-24T19:37:11.598Z,100245.66
2024-02-24T19:39:38.174Z,100248.16
2024-02-24T19:42:05.211Z,100241.34
2024-02-24T19:44:31.663Z,100241.94
2024-02-24T19:46:58.042Z,100238.53
2024-02-24T19:49:24.657Z,100238.34
2024-02-24T19:51:51.245Z,100230.41
2024-02-24T19:54:17.522Z,100236.78
2024-02-24T19:56:43.947Z,100235.72
2024-02-24T19:59:10.603Z,100238.41
2024-02-24T20:01:40.231Z,100237.59
2024-02-24T20:04:07.078Z,100247.78
2024-02-24T20:06:33.536Z,100249.75
2024-02-24T20:09:00.218Z,100247.13
2024-02-24T20:11:26.827Z,100255.47
2024-02-24T20:13:53.255Z,100257.69
2024-02-24T20:16:19.747Z,100258.78
2024-02-24T20:18:46.190Z,100255.47
2024-02-24T20:21:13.550Z,100255.47
2024-02-24T20:23:40.456Z,100253.72
2024-02-24T20:26:06.922Z,100265.34
2024-02-24T20:28:33.428Z,100262.06
2024-02-24T20:30:59.733Z,100262.63
2024-02-24T20:33:26.486Z,100263.19
2024-02-24T20:35:53.024Z,100265.63
2024-02-24T20:38:20.004Z,100270.00
2024-02-24T20:40:47.719Z,100263.63
2024-02-24T20:43:17.271Z,100274.00
2024-02-24T20:45:43.622Z,100261.13
2024-02-24T20:48:11.498Z,100268.34
2024-02-24T20:50:38.019Z,100270.47
2024-02-24T20:53:05.063Z,100266.22
2024-02-24T20:55:31.646Z,100271.88
2024-02-24T20:57:57.938Z,100268.00
2024-02-24T21:00:24.207Z,100274.97
2024-02-24T21:02:50.853Z,100279.56
2024-02-24T21:05:17.237Z,100278.91
2024-02-24T21:07:43.808Z,100284.44
2024-02-24T21:10:10.778Z,100287.22
2024-02-24T21:12:37.128Z,100287.47
2024-02-24T21:15:04.153Z,100278.22
2024-02-24T21:17:31.013Z,100280.06
2024-02-24T21:20:04.322Z,100295.41
2024-02-24T21:22:32.264Z,100291.34
2024-02-24T21:25:00.375Z,100288.31
2024-02-24T21:27:27.353Z,100292.97
2024-02-24T21:29:53.735Z,100305.91
2024-02-24T21:32:20.467Z,100306.97
2024-02-24T21:34:46.867Z,100309.19
2024-02-24T21:37:13.466Z,100303.84
2024-02-24T21:39:39.853Z,100308.41
2024-02-24T21:42:08.639Z,100309.41
2024-02-24T21:44:35.028Z,100314.06
2024-02-24T21:47:01.536Z,100302.66
2024-02-24T21:49:27.986Z,100306.22
2024-02-24T21:51:54.298Z,100306.34
2024-02-24T21:54:20.843Z,100314.97
2024-02-24T21:56:57.682Z,100313.31
2024-02-24T21:59:25.189Z,100310.63
2024-02-24T22:01:52.969Z,100308.75
2024-02-24T22:04:19.534Z,100311.19
2024-02-24T22:06:46.097Z,100305.06
2024-02-24T22:09:12.706Z,100312.56
2024-02-24T22:11:39.721Z,100311.81
2024-02-24T22:14:06.248Z,100308.66
2024-02-24T22:16:32.848Z,100312.97
2024-02-24T22:18:59.408Z,100318.88
2024-02-24T22:21:27.989Z,100313.63
2024-02-24T22:23:54.807Z,100311.81
2024-02-24T22:26:22.032Z,100319.28
2024-02-24T22:28:48.650Z,100318.81
2024-02-24T22:31:14.964Z,100321.53
2024-02-24T22:33:41.746Z,100328.25
2024-02-24T22:36:08.660Z,100323.31
2024-02-24T22:38:35.341Z,100330.09
2024-02-24T22:41:05.585Z,100331.81
2024-02-24T22:43:32.106Z,100324.16
2024-02-24T22:45:58.413Z,100319.00
2024-02-24T22:48:25.014Z,100322.41
2024-02-24T22:50:51.391Z,100324.16
2024-02-24T22:53:17.904Z,100319.97
2024-02-24T22:55:44.430Z,100309.59
2024-02-24T22:58:10.757Z,100315.03
2024-02-24T23:00:37.370Z,100322.25
2024-02-24T23:03:04.131Z,100313.19
2024-02-24T23:05:30.628Z,100318.53
2024-02-24T23:07:57.227Z,100317.97
2024-02-24T23:10:23.520Z,100319.22
2024-02-24T23:12:51.352Z,100318.13
2024-02-24T23:15:17.655Z,100319.78
2024-02-24T23:17:44.662Z,100323.09
2024-02-24T23:20:11.380Z,100325.72
2024-02-24T23:22:37.705Z,100322.41
2024-02-24T23:25:04.407Z,100325.91
2024-02-24T23:27:31.628Z,100332.59
2024-02-24T23:29:58.237Z,100328.25
2024-02-24T23:32:24.844Z,100331.22
2024-02-24T23:34:51.205Z,100335.00
2024-02-24T23:37:17.547Z,100337.34
2024-02-24T23:39:44.058Z,100324.28
2024-02-24T23:42:10.435Z,100337.50
2024-02-24T23:44:36.833Z,100333.91
2024-02-24T23:47:03.532Z,100338.56
2024-02-24T23:49:30.182Z,100345.16
2024-02-24T23:51:56.558Z,100339.00
2024-02-24T23:54:23.115Z,100339.78
2024-02-24T23:56:49.440Z,100330.09
2024-02-24T23:59:16.154Z,100346.06
